sensor_id;sensor_type;location;lat;lon;timestamp;pressure;altitude;pressure_sealevel;temperature;humidity
79136;BME280;68533;51.090;17.216;2023-04-03T00:01:34;101026.97;;;-0.44;76.79
79136;BME280;68533;51.090;17.216;2023-04-03T00:04:06;101022.97;;;-0.54;76.92
79136;BME280;68533;51.090;17.216;2023-04-03T00:06:34;101018.56;;;-0.62;77.84
79136;BME280;68533;51.090;17.216;2023-04-03T00:09:00;101030.78;;;-0.66;77.30
79136;BME280;68533;51.090;17.216;2023-04-03T00:11:26;101031.31;;;-0.77;77.26
79136;BME280;68533;51.090;17.216;2023-04-03T00:13:52;101030.81;;;-0.87;78.25
79136;BME280;68533;51.090;17.216;2023-04-03T00:16:18;101027.03;;;-0.93;79.04
79136;BME280;68533;51.090;17.216;2023-04-03T00:18:44;101038.03;;;-0.94;78.17
79136;BME280;68533;51.090;17.216;2023-04-03T00:21:12;101036.94;;;-1.00;78.98
79136;BME280;68533;51.090;17.216;2023-04-03T00:23:38;101046.78;;;-1.13;79.51
79136;BME280;68533;51.090;17.216;2023-04-03T00:26:05;101033.00;;;-1.19;79.69
79136;BME280;68533;51.090;17.216;2023-04-03T00:28:30;101046.91;;;-1.22;79.96
79136;BME280;68533;51.090;17.216;2023-04-03T00:30:57;101039.94;;;-1.31;79.92
79136;BME280;68533;51.090;17.216;2023-04-03T00:33:23;101050.09;;;-1.33;80.56
79136;BME280;68533;51.090;17.216;2023-04-03T00:35:50;101046.78;;;-1.35;80.30
79136;BME280;68533;51.090;17.216;2023-04-03T00:38:17;101047.91;;;-1.44;80.97
79136;BME280;68533;51.090;17.216;2023-04-03T00:40:45;101041.69;;;-1.44;80.99
79136;BME280;68533;51.090;17.216;2023-04-03T00:43:23;101039.56;;;-1.49;80.60
79136;BME280;68533;51.090;17.216;2023-04-03T00:45:52;101044.13;;;-1.49;81.64
79136;BME280;68533;51.090;17.216;2023-04-03T00:48:29;101039.34;;;-1.47;81.11
79136;BME280;68533;51.090;17.216;2023-04-03T00:50:57;101038.00;;;-1.58;81.68
79136;BME280;68533;51.090;17.216;2023-04-03T00:53:27;101046.78;;;-1.71;81.96
79136;BME280;68533;51.090;17.216;2023-04-03T00:55:58;101055.50;;;-1.69;81.97
79136;BME280;68533;51.090;17.216;2023-04-03T00:58:32;101043.50;;;-1.66;82.39
79136;BME280;68533;51.090;17.216;2023-04-03T01:03:41;101045.69;;;-1.55;81.26
79136;BME280;68533;51.090;17.216;2023-04-03T01:06:08;101055.38;;;-1.61;82.14
79136;BME280;68533;51.090;17.216;2023-04-03T01:08:34;101059.84;;;-1.53;81.19
79136;BME280;68533;51.090;17.216;2023-04-03T01:11:03;101052.88;;;-1.62;81.70
79136;BME280;68533;51.090;17.216;2023-04-03T01:13:31;101053.16;;;-1.57;81.97
79136;BME280;68533;51.090;17.216;2023-04-03T01:16:01;101054.75;;;-1.77;83.17
79136;BME280;68533;51.090;17.216;2023-04-03T01:18:28;101057.34;;;-1.69;82.61
79136;BME280;68533;51.090;17.216;2023-04-03T01:24:09;101056.22;;;-1.60;82.58
79136;BME280;68533;51.090;17.216;2023-04-03T01:26:37;101058.84;;;-1.67;83.35
79136;BME280;68533;51.090;17.216;2023-04-03T01:29:03;101057.84;;;-1.66;82.73
79136;BME280;68533;51.090;17.216;2023-04-03T01:31:53;101066.28;;;-1.69;83.58
79136;BME280;68533;51.090;17.216;2023-04-03T01:34:20;101068.53;;;-1.72;83.09
79136;BME280;68533;51.090;17.216;2023-04-03T01:36:46;101068.69;;;-1.59;82.50
79136;BME280;68533;51.090;17.216;2023-04-03T01:39:12;101066.25;;;-1.54;82.76
79136;BME280;68533;51.090;17.216;2023-04-03T01:41:38;101071.81;;;-1.41;81.79
79136;BME280;68533;51.090;17.216;2023-04-03T01:44:05;101071.19;;;-1.43;81.82
79136;BME280;68533;51.090;17.216;2023-04-03T01:46:32;101073.28;;;-1.38;82.12
79136;BME280;68533;51.090;17.216;2023-04-03T01:48:57;101074.31;;;-1.39;82.17
79136;BME280;68533;51.090;17.216;2023-04-03T01:51:24;101076.81;;;-1.38;81.86
79136;BME280;68533;51.090;17.216;2023-04-03T01:53:50;101083.91;;;-1.37;81.74
79136;BME280;68533;51.090;17.216;2023-04-03T01:56:17;101082.03;;;-1.36;81.50
79136;BME280;68533;51.090;17.216;2023-04-03T01:58:43;101084.91;;;-1.38;81.76
79136;BME280;68533;51.090;17.216;2023-04-03T02:01:10;101078.63;;;-1.45;82.09
79136;BME280;68533;51.090;17.216;2023-04-03T02:03:36;101074.25;;;-1.46;82.67
79136;BME280;68533;51.090;17.216;2023-04-03T02:06:02;101077.34;;;-1.49;82.34
79136;BME280;68533;51.090;17.216;2023-04-03T02:08:28;101082.06;;;-1.51;82.27
79136;BME280;68533;51.090;17.216;2023-04-03T02:10:54;101080.97;;;-1.57;82.33
79136;BME280;68533;51.090;17.216;2023-04-03T02:13:20;101081.34;;;-1.60;82.22
79136;BME280;68533;51.090;17.216;2023-04-03T02:15:47;101080.31;;;-1.59;82.24
79136;BME280;68533;51.090;17.216;2023-04-03T02:18:13;101081.91;;;-1.64;83.11
79136;BME280;68533;51.090;17.216;2023-04-03T02:20:39;101077.16;;;-1.62;83.55
79136;BME280;68533;51.090;17.216;2023-04-03T02:23:06;101079.84;;;-1.62;83.75
79136;BME280;68533;51.090;17.216;2023-04-03T02:25:32;101071.75;;;-1.62;83.08
79136;BME280;68533;51.090;17.216;2023-04-03T02:27:58;101073.19;;;-1.66;83.22
79136;BME280;68533;51.090;17.216;2023-04-03T02:30:25;101077.16;;;-1.62;83.02
79136;BME280;68533;51.090;17.216;2023-04-03T02:32:52;101079.41;;;-1.66;83.17
79136;BME280;68533;51.090;17.216;2023-04-03T02:35:19;101079.22;;;-1.64;83.18
79136;BME280;68533;51.090;17.216;2023-04-03T02:37:45;101079.22;;;-1.64;82.84
79136;BME280;68533;51.090;17.216;2023-04-03T02:40:15;101083.84;;;-1.58;82.74
79136;BME280;68533;51.090;17.216;2023-04-03T02:42:41;101080.91;;;-1.63;82.94
79136;BME280;68533;51.090;17.216;2023-04-03T02:45:07;101082.53;;;-1.62;82.86
79136;BME280;68533;51.090;17.216;2023-04-03T02:47:33;101089.78;;;-1.63;83.13
79136;BME280;68533;51.090;17.216;2023-04-03T02:49:59;101088.41;;;-1.59;83.03
79136;BME280;68533;51.090;17.216;2023-04-03T02:52:28;101085.47;;;-1.64;83.10
79136;BME280;68533;51.090;17.216;2023-04-03T02:54:54;101082.66;;;-1.70;83.22
79136;BME280;68533;51.090;17.216;2023-04-03T02:57:20;101090.66;;;-1.77;83.49
79136;BME280;68533;51.090;17.216;2023-04-03T02:59:46;101106.00;;;-1.77;83.21
79136;BME280;68533;51.090;17.216;2023-04-03T03:02:12;101102.78;;;-1.87;83.92
79136;BME280;68533;51.090;17.216;2023-04-03T03:04:38;101112.63;;;-1.94;84.10
79136;BME280;68533;51.090;17.216;2023-04-03T03:07:04;101110.38;;;-2.06;85.01
79136;BME280;68533;51.090;17.216;2023-04-03T03:09:31;101106.41;;;-2.10;84.71
79136;BME280;68533;51.090;17.216;2023-04-03T03:11:58;101104.63;;;-2.17;85.15
79136;BME280;68533;51.090;17.216;2023-04-03T03:14:28;101112.97;;;-2.27;85.69
79136;BME280;68533;51.090;17.216;2023-04-03T03:16:54;101102.00;;;-2.25;85.53
79136;BME280;68533;51.090;17.216;2023-04-03T03:19:23;101104.22;;;-2.29;85.96
79136;BME280;68533;51.090;17.216;2023-04-03T03:21:48;101107.66;;;-2.35;85.98
79136;BME280;68533;51.090;17.216;2023-04-03T03:24:15;101104.31;;;-2.37;86.48
79136;BME280;68533;51.090;17.216;2023-04-03T03:26:41;101111.56;;;-2.38;86.15
79136;BME280;68533;51.090;17.216;2023-04-03T03:29:07;101107.66;;;-2.35;86.29
79136;BME280;68533;51.090;17.216;2023-04-03T03:31:34;101109.41;;;-2.42;86.50
79136;BME280;68533;51.090;17.216;2023-04-03T03:34:01;101110.06;;;-2.40;86.09
79136;BME280;68533;51.090;17.216;2023-04-03T03:36:28;101123.53;;;-2.40;86.27
79136;BME280;68533;51.090;17.216;2023-04-03T03:38:55;101121.09;;;-2.50;87.10
79136;BME280;68533;51.090;17.216;2023-04-03T03:41:24;101116.63;;;-2.57;87.30
79136;BME280;68533;51.090;17.216;2023-04-03T03:43:50;101131.59;;;-2.55;87.23
79136;BME280;68533;51.090;17.216;2023-04-03T03:46:16;101124.41;;;-2.62;87.21
79136;BME280;68533;51.090;17.216;2023-04-03T03:48:43;101126.81;;;-2.67;87.71
79136;BME280;68533;51.090;17.216;2023-04-03T03:51:11;101125.16;;;-2.68;88.15
79136;BME280;68533;51.090;17.216;2023-04-03T03:53:39;101136.09;;;-2.70;87.90
79136;BME280;68533;51.090;17.216;2023-04-03T03:56:04;101129.50;;;-2.67;87.77
79136;BME280;68533;51.090;17.216;2023-04-03T03:58:31;101114.72;;;-2.71;87.86
79136;BME280;68533;51.090;17.216;2023-04-03T04:01:01;101123.47;;;-2.69;87.56
79136;BME280;68533;51.090;17.216;2023-04-03T04:03:28;101128.91;;;-2.78;88.19
79136;BME280;68533;51.090;17.216;2023-04-03T04:05:57;101125.28;;;-2.85;88.38
79136;BME280;68533;51.090;17.216;2023-04-03T04:08:30;101136.88;;;-2.84;89.00
79136;BME280;68533;51.090;17.216;2023-04-03T04:10:58;101138.19;;;-2.80;88.77
79136;BME280;68533;51.090;17.216;2023-04-03T04:13:29;101137.03;;;-2.86;88.85
79136;BME280;68533;51.090;17.216;2023-04-03T04:15:57;101142.91;;;-2.82;88.67
79136;BME280;68533;51.090;17.216;2023-04-03T04:18:29;101148.47;;;-2.84;88.63
79136;BME280;68533;51.090;17.216;2023-04-03T04:20:56;101152.47;;;-2.80;88.54
79136;BME280;68533;51.090;17.216;2023-04-03T04:23:22;101146.25;;;-2.80;88.38
79136;BME280;68533;51.090;17.216;2023-04-03T04:25:49;101155.72;;;-2.84;88.39
79136;BME280;68533;51.090;17.216;2023-04-03T04:28:19;101154.88;;;-2.85;89.15
79136;BME280;68533;51.090;17.216;2023-04-03T04:30:47;101160.59;;;-2.88;88.71
79136;BME280;68533;51.090;17.216;2023-04-03T04:33:34;101163.84;;;-2.92;89.13
79136;BME280;68533;51.090;17.216;2023-04-03T04:36:04;101169.06;;;-2.91;88.90
79136;BME280;68533;51.090;17.216;2023-04-03T04:38:31;101172.94;;;-2.93;89.15
79136;BME280;68533;51.090;17.216;2023-04-03T04:41:02;101170.06;;;-2.92;88.77
79136;BME280;68533;51.090;17.216;2023-04-03T04:43:33;101167.38;;;-2.92;89.34
79136;BME280;68533;51.090;17.216;2023-04-03T04:46:07;101173.88;;;-2.86;88.89
79136;BME280;68533;51.090;17.216;2023-04-03T04:48:38;101174.38;;;-2.83;89.06
79136;BME280;68533;51.090;17.216;2023-04-03T04:51:05;101177.06;;;-2.83;88.63
79136;BME280;68533;51.090;17.216;2023-04-03T04:53:31;101183.59;;;-2.77;88.77
79136;BME280;68533;51.090;17.216;2023-04-03T04:55:59;101177.66;;;-2.72;88.57
79136;BME280;68533;51.090;17.216;2023-04-03T04:58:26;101186.41;;;-2.70;88.44
79136;BME280;68533;51.090;17.216;2023-04-03T05:01:02;101190.28;;;-2.73;88.91
79136;BME280;68533;51.090;17.216;2023-04-03T05:03:31;101187.06;;;-2.68;88.82
79136;BME280;68533;51.090;17.216;2023-04-03T05:05:58;101183.81;;;-2.64;88.23
79136;BME280;68533;51.090;17.216;2023-04-03T05:08:28;101190.72;;;-2.61;88.35
79136;BME280;68533;51.090;17.216;2023-04-03T05:10:54;101202.16;;;-2.59;87.95
79136;BME280;68533;51.090;17.216;2023-04-03T05:13:20;101202.63;;;-2.56;88.17
79136;BME280;68533;51.090;17.216;2023-04-03T05:15:47;101195.31;;;-2.47;87.90
79136;BME280;68533;51.090;17.216;2023-04-03T05:18:13;101203.06;;;-2.29;86.57
79136;BME280;68533;51.090;17.216;2023-04-03T05:20:40;101203.75;;;-2.13;85.77
79136;BME280;68533;51.090;17.216;2023-04-03T05:23:06;101204.09;;;-1.93;85.21
79136;BME280;68533;51.090;17.216;2023-04-03T05:25:32;101210.97;;;-1.76;84.49
79136;BME280;68533;51.090;17.216;2023-04-03T05:28:00;101207.19;;;-1.52;84.30
79136;BME280;68533;51.090;17.216;2023-04-03T05:30:26;101219.63;;;-1.22;82.28
79136;BME280;68533;51.090;17.216;2023-04-03T05:32:55;101210.38;;;-0.98;80.88
79136;BME280;68533;51.090;17.216;2023-04-03T05:35:21;101221.25;;;-0.91;81.30
79136;BME280;68533;51.090;17.216;2023-04-03T05:37:49;101214.69;;;-0.46;79.67
79136;BME280;68533;51.090;17.216;2023-04-03T05:40:18;101228.59;;;-0.21;78.65
79136;BME280;68533;51.090;17.216;2023-04-03T05:42:44;101223.88;;;0.09;76.60
79136;BME280;68533;51.090;17.216;2023-04-03T05:45:10;101223.25;;;0.07;76.29
79136;BME280;68533;51.090;17.216;2023-04-03T05:47:37;101232.44;;;0.40;76.36
79136;BME280;68533;51.090;17.216;2023-04-03T05:50:04;101229.78;;;0.19;75.88
79136;BME280;68533;51.090;17.216;2023-04-03T05:52:40;101225.56;;;0.72;73.51
79136;BME280;68533;51.090;17.216;2023-04-03T05:55:11;101233.41;;;1.01;72.64
79136;BME280;68533;51.090;17.216;2023-04-03T05:57:37;101228.50;;;1.38;71.44
79136;BME280;68533;51.090;17.216;2023-04-03T06:00:30;101232.38;;;1.09;72.33
79136;BME280;68533;51.090;17.216;2023-04-03T06:03:24;101234.56;;;1.33;72.16
79136;BME280;68533;51.090;17.216;2023-04-03T06:05:53;101238.28;;;1.26;71.83
79136;BME280;68533;51.090;17.216;2023-04-03T06:08:19;101230.00;;;1.47;71.08
79136;BME280;68533;51.090;17.216;2023-04-03T06:10:47;101241.94;;;1.85;69.64
79136;BME280;68533;51.090;17.216;2023-04-03T06:13:14;101233.28;;;1.36;70.85
79136;BME280;68533;51.090;17.216;2023-04-03T06:15:42;101233.78;;;1.59;71.80
79136;BME280;68533;51.090;17.216;2023-04-03T06:18:09;101235.47;;;2.32;68.55
79136;BME280;68533;51.090;17.216;2023-04-03T06:20:35;101232.00;;;1.19;71.54
79136;BME280;68533;51.090;17.216;2023-04-03T06:23:03;101231.91;;;1.73;69.92
79136;BME280;68533;51.090;17.216;2023-04-03T06:25:29;101241.75;;;2.07;70.42
79136;BME280;68533;51.090;17.216;2023-04-03T06:27:55;101241.50;;;1.62;69.97
79136;BME280;68533;51.090;17.216;2023-04-03T06:30:27;101247.31;;;0.98;73.14
79136;BME280;68533;51.090;17.216;2023-04-03T06:32:54;101252.41;;;1.14;72.84
79136;BME280;68533;51.090;17.216;2023-04-03T06:35:23;101247.59;;;2.10;69.61
79136;BME280;68533;51.090;17.216;2023-04-03T06:37:52;101256.97;;;1.88;69.51
79136;BME280;68533;51.090;17.216;2023-04-03T06:40:21;101260.34;;;1.16;72.16
79136;BME280;68533;51.090;17.216;2023-04-03T06:42:48;101260.75;;;0.72;73.29
79136;BME280;68533;51.090;17.216;2023-04-03T06:45:15;101260.72;;;1.13;71.88
79136;BME280;68533;51.090;17.216;2023-04-03T06:47:41;101268.84;;;1.87;69.51
79136;BME280;68533;51.090;17.216;2023-04-03T06:50:11;101261.09;;;1.64;69.73
79136;BME280;68533;51.090;17.216;2023-04-03T06:52:42;101270.56;;;1.27;69.84
79136;BME280;68533;51.090;17.216;2023-04-03T06:55:09;101268.03;;;0.71;71.69
79136;BME280;68533;51.090;17.216;2023-04-03T06:57:44;101267.50;;;0.55;72.39
79136;BME280;68533;51.090;17.216;2023-04-03T07:00:15;101274.09;;;1.21;70.73
79136;BME280;68533;51.090;17.216;2023-04-03T07:02:47;101275.78;;;1.22;69.91
79136;BME280;68533;51.090;17.216;2023-04-03T07:05:34;101282.53;;;0.98;71.66
79136;BME280;68533;51.090;17.216;2023-04-03T07:08:01;101274.66;;;1.71;69.55
79136;BME280;68533;51.090;17.216;2023-04-03T07:10:29;101276.66;;;1.36;70.25
79136;BME280;68533;51.090;17.216;2023-04-03T07:13:01;101282.66;;;2.12;67.84
79136;BME280;68533;51.090;17.216;2023-04-03T07:15:32;101291.34;;;1.61;69.40
79136;BME280;68533;51.090;17.216;2023-04-03T07:18:02;101284.31;;;2.52;65.84
79136;BME280;68533;51.090;17.216;2023-04-03T07:20:45;101280.53;;;2.73;64.28
79136;BME280;68533;51.090;17.216;2023-04-03T07:23:21;101294.44;;;3.61;61.58
79136;BME280;68533;51.090;17.216;2023-04-03T07:25:50;101293.16;;;4.26;60.07
79136;BME280;68533;51.090;17.216;2023-04-03T07:28:22;101298.22;;;4.47;58.98
79136;BME280;68533;51.090;17.216;2023-04-03T07:31:02;101295.03;;;4.25;60.33
79136;BME280;68533;51.090;17.216;2023-04-03T07:33:46;101300.06;;;4.96;58.90
79136;BME280;68533;51.090;17.216;2023-04-03T07:36:19;101299.84;;;5.64;55.69
79136;BME280;68533;51.090;17.216;2023-04-03T07:38:48;101302.31;;;5.84;54.80
79136;BME280;68533;51.090;17.216;2023-04-03T07:41:19;101304.16;;;5.72;56.63
79136;BME280;68533;51.090;17.216;2023-04-03T07:43:51;101298.66;;;6.32;54.00
79136;BME280;68533;51.090;17.216;2023-04-03T07:46:23;101296.16;;;6.30;53.46
79136;BME280;68533;51.090;17.216;2023-04-03T07:48:49;101303.00;;;6.09;54.28
79136;BME280;68533;51.090;17.216;2023-04-03T07:51:16;101295.75;;;5.92;53.83
79136;BME280;68533;51.090;17.216;2023-04-03T07:53:49;101307.72;;;6.67;53.64
79136;BME280;68533;51.090;17.216;2023-04-03T07:56:16;101297.53;;;6.62;49.48
79136;BME280;68533;51.090;17.216;2023-04-03T07:58:42;101297.75;;;6.49;51.70
79136;BME280;68533;51.090;17.216;2023-04-03T08:01:13;101307.38;;;6.75;50.91
79136;BME280;68533;51.090;17.216;2023-04-03T08:03:39;101302.53;;;6.89;48.92
79136;BME280;68533;51.090;17.216;2023-04-03T08:06:23;101307.03;;;6.60;49.03
79136;BME280;68533;51.090;17.216;2023-04-03T08:08:52;101307.03;;;6.37;50.57
79136;BME280;68533;51.090;17.216;2023-04-03T08:11:20;101307.25;;;7.17;48.93
79136;BME280;68533;51.090;17.216;2023-04-03T08:13:49;101310.84;;;6.59;49.19
79136;BME280;68533;51.090;17.216;2023-04-03T08:16:18;101308.03;;;7.40;48.00
79136;BME280;68533;51.090;17.216;2023-04-03T08:18:45;101312.97;;;7.15;49.79
79136;BME280;68533;51.090;17.216;2023-04-03T08:21:13;101308.09;;;7.57;48.99
79136;BME280;68533;51.090;17.216;2023-04-03T08:23:58;101302.22;;;7.77;46.59
79136;BME280;68533;51.090;17.216;2023-04-03T08:26:26;101296.66;;;7.20;46.09
79136;BME280;68533;51.090;17.216;2023-04-03T08:28:56;101306.53;;;8.18;46.28
79136;BME280;68533;51.090;17.216;2023-04-03T08:31:26;101305.41;;;6.06;49.62
79136;BME280;68533;51.090;17.216;2023-04-03T08:33:56;101306.41;;;7.68;49.45
79136;BME280;68533;51.090;17.216;2023-04-03T08:36:27;101303.38;;;7.81;45.56
79136;BME280;68533;51.090;17.216;2023-04-03T08:38:59;101302.34;;;8.61;45.95
79136;BME280;68533;51.090;17.216;2023-04-03T08:41:35;101299.44;;;8.34;43.16
79136;BME280;68533;51.090;17.216;2023-04-03T08:50:15;101309.25;;;8.63;44.41
79136;BME280;68533;51.090;17.216;2023-04-03T08:52:57;101310.94;;;9.03;44.50
79136;BME280;68533;51.090;17.216;2023-04-03T08:55:27;101307.44;;;8.24;41.53
79136;BME280;68533;51.090;17.216;2023-04-03T08:58:18;101287.63;;;7.88;42.73
79136;BME280;68533;51.090;17.216;2023-04-03T09:01:16;101301.34;;;6.73;44.83
79136;BME280;68533;51.090;17.216;2023-04-03T09:03:48;101296.00;;;8.93;42.59
79136;BME280;68533;51.090;17.216;2023-04-03T09:06:33;101307.56;;;8.95;42.66
79136;BME280;68533;51.090;17.216;2023-04-03T09:11:46;101309.75;;;5.95;45.12
79136;BME280;68533;51.090;17.216;2023-04-03T09:17:09;101304.06;;;7.08;42.03
79136;BME280;68533;51.090;17.216;2023-04-03T09:19:47;101309.66;;;6.78;43.12
79136;BME280;68533;51.090;17.216;2023-04-03T09:22:25;101315.50;;;5.87;48.65
79136;BME280;68533;51.090;17.216;2023-04-03T09:25:16;101303.41;;;5.17;44.46
79136;BME280;68533;51.090;17.216;2023-04-03T09:27:43;101312.75;;;5.57;46.48
79136;BME280;68533;51.090;17.216;2023-04-03T09:30:14;101300.38;;;3.44;48.96
79136;BME280;68533;51.090;17.216;2023-04-03T09:32:45;101320.09;;;5.75;48.46
79136;BME280;68533;51.090;17.216;2023-04-03T09:35:21;101308.09;;;7.17;43.41
79136;BME280;68533;51.090;17.216;2023-04-03T09:38:17;101313.09;;;7.89;41.29
79136;BME280;68533;51.090;17.216;2023-04-03T09:41:03;101320.06;;;5.08;47.11
79136;BME280;68533;51.090;17.216;2023-04-03T09:43:37;101306.69;;;4.08;50.09
79136;BME280;68533;51.090;17.216;2023-04-03T09:46:33;101310.56;;;4.93;49.37
79136;BME280;68533;51.090;17.216;2023-04-03T09:49:10;101320.09;;;7.16;43.26
79136;BME280;68533;51.090;17.216;2023-04-03T09:51:38;101315.13;;;7.01;43.18
79136;BME280;68533;51.090;17.216;2023-04-03T09:54:30;101310.00;;;5.75;47.22
79136;BME280;68533;51.090;17.216;2023-04-03T09:57:01;101318.28;;;5.51;45.59
79136;BME280;68533;51.090;17.216;2023-04-03T09:59:30;101313.44;;;4.98;47.56
79136;BME280;68533;51.090;17.216;2023-04-03T10:04:46;101317.97;;;4.43;50.32
79136;BME280;68533;51.090;17.216;2023-04-03T10:07:34;101311.22;;;7.49;46.14
79136;BME280;68533;51.090;17.216;2023-04-03T10:12:42;101308.00;;;7.52;42.67
79136;BME280;68533;51.090;17.216;2023-04-03T10:15:16;101310.28;;;6.15;43.31
79136;BME280;68533;51.090;17.216;2023-04-03T10:20:37;101313.06;;;5.13;46.93
79136;BME280;68533;51.090;17.216;2023-04-03T10:26:05;101303.59;;;4.97;46.54
79136;BME280;68533;51.090;17.216;2023-04-03T10:34:35;101303.53;;;4.85;50.29
79136;BME280;68533;51.090;17.216;2023-04-03T10:37:15;101300.44;;;5.00;48.48
79136;BME280;68533;51.090;17.216;2023-04-03T10:43:19;101302.78;;;7.79;40.13
79136;BME280;68533;51.090;17.216;2023-04-03T10:46:08;101296.28;;;5.16;45.95
79136;BME280;68533;51.090;17.216;2023-04-03T10:51:41;101305.59;;;6.57;45.50
79136;BME280;68533;51.090;17.216;2023-04-03T10:54:20;101296.38;;;6.05;43.80
79136;BME280;68533;51.090;17.216;2023-04-03T10:56:53;101303.03;;;4.70;45.70
79136;BME280;68533;51.090;17.216;2023-04-03T10:59:45;101304.16;;;4.13;47.48
79136;BME280;68533;51.090;17.216;2023-04-03T11:02:23;101296.13;;;5.11;45.39
79136;BME280;68533;51.090;17.216;2023-04-03T11:07:57;101294.09;;;7.82;38.36
79136;BME280;68533;51.090;17.216;2023-04-03T11:10:49;101291.00;;;6.52;43.88
79136;BME280;68533;51.090;17.216;2023-04-03T11:13:45;101297.69;;;5.55;43.69
79136;BME280;68533;51.090;17.216;2023-04-03T11:16:23;101301.91;;;4.78;46.08
79136;BME280;68533;51.090;17.216;2023-04-03T11:19:08;101285.56;;;7.38;40.78
79136;BME280;68533;51.090;17.216;2023-04-03T11:21:46;101288.38;;;8.62;38.87
79136;BME280;68533;51.090;17.216;2023-04-03T11:24:22;101282.41;;;8.65;35.70
79136;BME280;68533;51.090;17.216;2023-04-03T11:26:50;101284.19;;;8.26;37.24
79136;BME280;68533;51.090;17.216;2023-04-03T11:29:38;101281.03;;;8.17;38.68
79136;BME280;68533;51.090;17.216;2023-04-03T11:35:08;101282.75;;;7.22;41.97
79136;BME280;68533;51.090;17.216;2023-04-03T11:37:44;101270.91;;;6.70;41.19
79136;BME280;68533;51.090;17.216;2023-04-03T11:42:41;101287.53;;;4.71;44.66
79136;BME280;68533;51.090;17.216;2023-04-03T11:55:57;101283.50;;;6.36;38.30
79136;BME280;68533;51.090;17.216;2023-04-03T11:58:34;101265.72;;;8.33;41.25
79136;BME280;68533;51.090;17.216;2023-04-03T12:01:10;101274.53;;;8.90;33.63
79136;BME280;68533;51.090;17.216;2023-04-03T12:16:33;101252.94;;;7.94;34.19
79136;BME280;68533;51.090;17.216;2023-04-03T12:24:36;101258.53;;;6.90;37.50
79136;BME280;68533;51.090;17.216;2023-04-03T12:27:26;101264.56;;;7.56;36.79
79136;BME280;68533;51.090;17.216;2023-04-03T12:33:02;101250.78;;;9.61;31.46
79136;BME280;68533;51.090;17.216;2023-04-03T12:35:37;101252.38;;;10.11;31.99
79136;BME280;68533;51.090;17.216;2023-04-03T12:38:41;101259.34;;;10.98;30.69
79136;BME280;68533;51.090;17.216;2023-04-03T12:46:50;101261.97;;;6.39;40.35
79136;BME280;68533;51.090;17.216;2023-04-03T12:49:32;101261.41;;;5.66;39.33
79136;BME280;68533;51.090;17.216;2023-04-03T12:51:58;101257.97;;;7.40;42.24
79136;BME280;68533;51.090;17.216;2023-04-03T12:54:35;101255.66;;;8.39;38.36
79136;BME280;68533;51.090;17.216;2023-04-03T12:57:12;101255.00;;;9.74;34.69
79136;BME280;68533;51.090;17.216;2023-04-03T12:59:42;101250.44;;;7.75;35.00
79136;BME280;68533;51.090;17.216;2023-04-03T13:02:31;101248.38;;;7.54;36.10
79136;BME280;68533;51.090;17.216;2023-04-03T13:05:09;101239.34;;;9.04;34.40
79136;BME280;68533;51.090;17.216;2023-04-03T13:07:42;101233.88;;;7.54;37.05
79136;BME280;68533;51.090;17.216;2023-04-03T13:12:45;101260.00;;;5.93;40.70
79136;BME280;68533;51.090;17.216;2023-04-03T13:17:41;101251.63;;;7.96;37.96
79136;BME280;68533;51.090;17.216;2023-04-03T13:23:07;101245.50;;;8.73;35.26
79136;BME280;68533;51.090;17.216;2023-04-03T13:25:41;101250.44;;;6.95;36.14
79136;BME280;68533;51.090;17.216;2023-04-03T13:28:22;101246.94;;;8.97;35.09
79136;BME280;68533;51.090;17.216;2023-04-03T13:31:31;101240.34;;;9.63;32.94
79136;BME280;68533;51.090;17.216;2023-04-03T13:34:16;101251.72;;;9.07;32.42
79136;BME280;68533;51.090;17.216;2023-04-03T13:36:58;101252.63;;;9.56;33.29
79136;BME280;68533;51.090;17.216;2023-04-03T13:39:33;101252.50;;;8.47;35.05
79136;BME280;68533;51.090;17.216;2023-04-03T13:42:15;101256.16;;;6.94;35.66
79136;BME280;68533;51.090;17.216;2023-04-03T13:44:44;101258.25;;;5.99;37.63
79136;BME280;68533;51.090;17.216;2023-04-03T13:47:36;101249.38;;;6.96;37.64
79136;BME280;68533;51.090;17.216;2023-04-03T13:52:45;101247.63;;;8.87;33.23
79136;BME280;68533;51.090;17.216;2023-04-03T13:55:32;101245.09;;;8.14;35.36
79136;BME280;68533;51.090;17.216;2023-04-03T14:00:46;101239.63;;;4.81;38.37
79136;BME280;68533;51.090;17.216;2023-04-03T14:03:25;101246.16;;;4.80;42.31
79136;BME280;68533;51.090;17.216;2023-04-03T14:05:57;101241.03;;;4.47;41.20
79136;BME280;68533;51.090;17.216;2023-04-03T14:08:25;101242.38;;;6.89;40.10
79136;BME280;68533;51.090;17.216;2023-04-03T14:10:58;101242.25;;;8.09;38.00
79136;BME280;68533;51.090;17.216;2023-04-03T14:13:26;101241.94;;;8.55;35.15
79136;BME280;68533;51.090;17.216;2023-04-03T14:16:00;101240.69;;;8.63;36.16
79136;BME280;68533;51.090;17.216;2023-04-03T14:18:31;101229.47;;;9.03;36.85
79136;BME280;68533;51.090;17.216;2023-04-03T14:20:59;101234.03;;;7.35;34.35
79136;BME280;68533;51.090;17.216;2023-04-03T14:23:27;101239.59;;;5.66;39.08
79136;BME280;68533;51.090;17.216;2023-04-03T14:25:54;101242.44;;;5.11;40.32
79136;BME280;68533;51.090;17.216;2023-04-03T14:28:22;101239.75;;;5.04;41.05
79136;BME280;68533;51.090;17.216;2023-04-03T14:30:54;101237.88;;;5.05;41.64
79136;BME280;68533;51.090;17.216;2023-04-03T14:33:22;101239.88;;;5.46;37.47
79136;BME280;68533;51.090;17.216;2023-04-03T14:35:49;101231.13;;;6.50;35.41
79136;BME280;68533;51.090;17.216;2023-04-03T14:38:30;101234.66;;;6.86;35.18
79136;BME280;68533;51.090;17.216;2023-04-03T14:40:57;101227.19;;;7.21;36.47
79136;BME280;68533;51.090;17.216;2023-04-03T14:43:32;101224.03;;;7.69;35.84
79136;BME280;68533;51.090;17.216;2023-04-03T14:46:04;101221.41;;;7.46;37.53
79136;BME280;68533;51.090;17.216;2023-04-03T14:48:38;101226.69;;;5.73;40.16